Time;durP1;ratioP1;P1;durP2;ratioP2;P2;SDS_P1;SDS_P2;PMS_P1;PMS_P2;Temp;Humidity;BMP_temperature;BMP_pressure;BME280_temperature;BME280_humidity;BME280_pressure;Samples;Min_cycle;Max_cycle;Signal;HPM_P1;HPM_P2
2022/04/14 00:00:03;;;;;;;3.80;3.50;;;14.90;63.50;15.20;96332.00;;;;4935645;28;20232;-86
2022/04/14 00:02:30;;;;;;;4.20;3.80;;;14.90;63.50;15.20;96336.00;;;;4953258;28;20235;-86
2022/04/14 00:04:57;;;;;;;4.30;3.90;;;14.80;63.50;15.10;96334.00;;;;4953721;28;20220;-86
2022/04/14 00:07:24;;;;;;;4.30;3.90;;;14.80;63.60;15.10;96337.00;;;;4954216;28;20200;-86
2022/04/14 00:09:51;;;;;;;4.50;4.10;;;14.80;63.60;15.10;96339.00;;;;4954134;28;20307;-87
2022/04/14 00:12:20;;;;;;;4.30;3.90;;;14.70;63.70;15.00;96336.00;;;;4954095;28;20211;-87
2022/04/14 00:14:47;;;;;;;4.67;3.97;;;14.70;63.90;15.00;96347.00;;;;4953631;28;20212;-87
2022/04/14 00:17:14;;;;;;;4.23;3.80;;;14.70;63.90;15.00;96343.00;;;;4953766;28;20286;-87
2022/04/14 00:19:42;;;;;;;3.87;3.47;;;14.70;64.00;14.90;96338.00;;;;4953546;28;20226;-87
2022/04/14 00:22:09;;;;;;;3.80;3.50;;;14.60;63.80;14.90;96339.00;;;;4941546;28;20201;-87
2022/04/14 00:24:36;;;;;;;4.17;3.77;;;14.60;63.80;14.90;96338.00;;;;4934278;28;20628;-86
2022/04/14 00:27:04;;;;;;;4.37;3.97;;;14.60;63.90;14.80;96338.00;;;;4934610;28;20207;-87
2022/04/14 00:29:32;;;;;;;4.63;3.90;;;14.50;63.80;14.80;96350.00;;;;4934532;28;20227;-87
2022/04/14 00:31:59;;;;;;;4.60;3.60;;;14.60;64.00;14.80;96350.00;;;;4951030;28;20211;-87
2022/04/14 00:34:26;;;;;;;4.37;3.90;;;14.50;64.00;14.70;96350.00;;;;4953630;28;20204;-87
2022/04/14 00:36:53;;;;;;;4.73;4.20;;;14.40;63.90;14.70;96350.00;;;;4953572;28;20298;-86
2022/04/14 00:39:20;;;;;;;4.27;3.87;;;14.40;64.00;14.70;96340.00;;;;4953457;28;20596;-87
2022/04/14 00:41:47;;;;;;;4.40;3.57;;;14.40;64.00;14.60;96340.00;;;;4953276;28;20192;-87
2022/04/14 00:44:14;;;;;;;5.00;3.90;;;14.40;64.00;14.60;96350.00;;;;4953106;28;20226;-87
2022/04/14 00:46:43;;;;;;;4.10;3.53;;;14.30;63.90;14.50;96352.00;;;;4953393;28;20208;-87
2022/04/14 00:49:11;;;;;;;4.20;3.80;;;14.20;63.90;14.50;96347.00;;;;4953218;28;20220;-87
2022/04/14 00:51:38;;;;;;;4.43;4.03;;;14.20;64.00;14.50;96351.00;;;;4953522;28;20222;-87
2022/04/14 00:54:05;;;;;;;4.17;3.77;;;14.10;64.10;14.40;96347.00;;;;4939397;28;20209;-86
2022/04/14 00:56:32;;;;;;;4.30;3.90;;;14.10;64.10;14.40;96354.00;;;;4934199;28;20205;-86
2022/04/14 00:58:59;;;;;;;4.73;3.80;;;14.10;64.30;14.30;96351.00;;;;4933987;28;20223;-86
2022/04/14 01:01:26;;;;;;;4.00;3.60;;;14.00;64.40;14.30;96346.00;;;;4947145;28;20709;-86
2022/04/14 01:03:56;;;;;;;4.33;3.93;;;14.00;64.50;14.20;96346.00;;;;4966118;28;20219;-85
2022/04/14 01:06:24;;;;;;;4.10;3.70;;;13.90;64.50;14.20;96353.00;;;;4952486;29;20197;-86
2022/04/14 01:11:38;;;;;;;3.90;3.60;;;13.90;64.60;14.10;96352.00;;;;4952795;29;20179;-87
2022/04/14 01:14:05;;;;;;;5.13;4.00;;;13.80;64.60;14.10;96349.00;;;;4952123;28;20216;-87
2022/04/14 01:16:32;;;;;;;4.03;3.63;;;13.80;64.80;14.00;96354.00;;;;4952799;28;20653;-87
2022/04/14 01:19:00;;;;;;;4.00;3.70;;;13.70;64.90;14.00;96358.00;;;;4952698;28;20220;-87
2022/04/14 01:21:33;;;;;;;3.80;3.27;;;13.70;65.00;14.00;96360.00;;;;4952869;28;20310;-87
2022/04/14 01:24:02;;;;;;;4.10;3.67;;;13.70;65.00;13.90;96354.00;;;;4952801;29;20212;-87
2022/04/14 01:26:30;;;;;;;4.07;3.77;;;13.60;65.20;13.90;96362.00;;;;4939518;28;20605;-86
2022/04/14 01:28:57;;;;;;;5.07;3.83;;;13.60;65.30;13.90;96365.00;;;;4933357;28;20311;-86
2022/04/14 01:31:24;;;;;;;3.80;3.50;;;13.50;65.30;13.80;96373.00;;;;4946053;28;20199;-87
2022/04/14 01:33:51;;;;;;;3.80;3.50;;;13.50;65.30;13.80;96374.00;;;;4952567;28;20215;-87
2022/04/14 01:36:19;;;;;;;3.80;3.50;;;13.50;65.30;13.80;96372.00;;;;4940763;28;20197;-87
2022/04/14 01:38:47;;;;;;;4.27;3.87;;;13.50;65.40;13.70;96369.00;;;;4933614;28;20229;-87
2022/04/14 01:41:15;;;;;;;3.80;3.50;;;13.40;65.30;13.70;96372.00;;;;4933512;28;20200;-87
2022/04/14 01:43:43;;;;;;;4.30;3.60;;;13.40;65.30;13.60;96369.00;;;;4933203;28;20220;-86
2022/04/14 01:46:10;;;;;;;3.23;3.00;;;13.40;65.40;13.60;96370.00;;;;4952254;28;20203;-87
2022/04/14 01:48:38;;;;;;;6.10;3.40;;;13.30;65.40;13.60;96370.00;;;;4943958;28;20800;-87
2022/04/14 01:51:06;;;;;;;3.63;3.33;;;13.30;65.50;13.50;96372.00;;;;4945175;28;20251;-87
2022/04/14 01:53:33;;;;;;;4.80;4.00;;;13.20;65.60;13.50;96373.00;;;;4952647;28;20257;-87
2022/04/14 01:56:00;;;;;;;3.73;3.43;;;13.20;65.70;13.50;96374.00;;;;4952285;28;20204;-87
2022/04/14 01:58:29;;;;;;;4.23;3.93;;;13.20;65.80;13.40;96377.00;;;;4946964;28;20224;-87
2022/04/14 02:00:56;;;;;;;4.30;3.90;;;13.10;65.80;13.40;96379.00;;;;4932946;28;20753;-87
2022/04/14 02:03:23;;;;;;;4.73;4.17;;;13.10;65.90;13.40;96377.00;;;;4932996;28;20205;-87
2022/04/14 02:05:50;;;;;;;4.07;3.70;;;13.10;65.90;13.30;96386.00;;;;4940148;28;20227;-87
2022/04/14 02:08:17;;;;;;;4.17;3.67;;;13.00;66.00;13.30;96380.00;;;;4952131;28;20192;-87
2022/04/14 02:10:44;;;;;;;4.77;3.80;;;13.00;66.10;13.30;96387.00;;;;4952290;28;20196;-87
2022/04/14 02:13:11;;;;;;;3.80;3.50;;;13.00;66.30;13.20;96385.00;;;;4952379;28;20207;-87
2022/04/14 02:15:40;;;;;;;4.20;3.53;;;12.90;66.40;13.20;96382.00;;;;4952106;28;20592;-87
2022/04/14 02:18:07;;;;;;;4.70;4.00;;;12.90;66.40;13.20;96386.00;;;;4934750;28;20684;-87
2022/04/14 02:20:34;;;;;;;4.20;3.80;;;12.90;66.60;13.10;96377.00;;;;4933147;28;20200;-85
2022/04/14 02:23:01;;;;;;;3.80;3.50;;;12.80;66.70;13.10;96386.00;;;;4933039;28;20213;-86
2022/04/14 02:25:28;;;;;;;3.80;3.27;;;12.80;66.80;13.10;96385.00;;;;4938133;28;20228;-86
2022/04/14 02:27:55;;;;;;;4.13;3.80;;;12.80;66.90;13.10;96386.00;;;;4952070;28;20619;-86
2022/04/14 02:30:22;;;;;;;3.60;3.30;;;12.80;67.00;13.10;96384.00;;;;4950369;28;20212;-86
2022/04/14 02:32:51;;;;;;;4.23;3.40;;;12.80;67.90;13.10;96386.00;;;;4951786;28;20267;-86
2022/04/14 02:35:18;;;;;;;4.03;3.60;;;12.80;68.10;13.10;96389.00;;;;4951849;28;20204;-87
2022/04/14 02:37:45;;;;;;;3.73;3.43;;;12.70;67.30;13.00;96386.00;;;;4952192;28;20207;-87
2022/04/14 02:40:13;;;;;;;4.13;3.50;;;12.70;67.40;13.00;96381.00;;;;4951646;28;20215;-87
2022/04/14 02:42:41;;;;;;;4.90;4.13;;;12.70;67.50;13.00;96386.00;;;;4952028;28;20196;-87
2022/04/14 02:45:10;;;;;;;4.13;3.60;;;12.60;67.60;13.00;96392.00;;;;4951643;28;20556;-87
2022/04/14 02:47:37;;;;;;;4.20;3.90;;;12.70;67.90;13.00;96399.00;;;;4951767;28;20662;-87
2022/04/14 02:50:07;;;;;;;4.43;4.13;;;12.60;67.90;12.90;96387.00;;;;4951442;28;20226;-87
2022/04/14 02:52:35;;;;;;;4.87;4.37;;;12.60;68.20;12.90;96386.00;;;;4951456;28;20199;-87
2022/04/14 02:55:02;;;;;;;4.17;3.87;;;12.60;68.20;12.90;96389.00;;;;4951410;28;20262;-86
2022/04/14 02:57:30;;;;;;;4.20;3.90;;;12.60;68.20;12.90;96392.00;;;;4951794;28;20204;-87
2022/04/14 02:59:57;;;;;;;5.17;4.43;;;12.60;68.20;12.90;96395.00;;;;4932498;28;20308;-86
2022/04/14 03:02:25;;;;;;;3.97;3.60;;;12.60;68.40;12.90;96396.00;;;;4947365;28;20204;-86
2022/04/14 03:04:53;;;;;;;4.80;4.40;;;12.60;68.50;12.90;96395.00;;;;4949728;28;20216;-87
2022/04/14 03:07:22;;;;;;;4.10;3.80;;;12.60;68.50;12.90;96396.00;;;;4958959;28;20204;-87
2022/04/14 03:09:49;;;;;;;4.47;4.07;;;12.60;68.50;12.90;96391.00;;;;4936701;29;20217;-87
2022/04/14 03:12:16;;;;;;;3.80;3.50;;;12.60;68.50;12.80;96388.00;;;;4934776;28;20721;-87
2022/04/14 03:14:44;;;;;;;7.30;5.20;;;12.50;68.40;12.80;96390.00;;;;4932114;28;20208;-87
2022/04/14 03:17:11;;;;;;;4.33;3.53;;;12.60;68.50;12.80;96389.00;;;;4944311;28;20200;-87
2022/04/14 03:19:38;;;;;;;3.83;3.53;;;12.50;68.50;12.80;96397.00;;;;4931982;28;20232;-87
2022/04/14 03:22:06;;;;;;;4.37;4.03;;;12.50;68.50;12.80;96395.00;;;;4932217;28;20212;-87
2022/04/14 03:24:34;;;;;;;8.93;3.90;;;12.50;68.40;12.70;96391.00;;;;4946424;28;20224;-87
2022/04/14 03:27:01;;;;;;;4.87;3.83;;;12.50;68.30;12.70;96390.00;;;;4950937;28;20588;-87
2022/04/14 03:29:32;;;;;;;3.90;3.60;;;12.50;68.20;12.70;96386.00;;;;4950973;28;20219;-87
2022/04/14 03:32:00;;;;;;;4.40;4.10;;;12.40;68.00;12.60;96388.00;;;;4950840;28;20215;-86
2022/04/14 03:34:27;;;;;;;4.57;4.17;;;12.40;68.10;12.60;96380.00;;;;4950969;28;20192;-87
2022/04/14 03:36:54;;;;;;;4.53;4.13;;;12.40;68.30;12.60;96384.00;;;;4953207;28;20561;-86
2022/04/14 03:39:21;;;;;;;4.27;3.90;;;12.30;68.60;12.50;96392.00;;;;4954195;28;20216;-86
2022/04/14 03:41:49;;;;;;;5.57;3.90;;;12.30;69.40;12.50;96389.00;;;;4954196;28;20295;-87
2022/04/14 03:44:16;;;;;;;4.03;3.73;;;12.30;68.80;12.50;96387.00;;;;4954125;28;20203;-87
2022/04/14 03:46:43;;;;;;;3.83;3.53;;;12.30;68.80;12.50;96399.00;;;;4954036;28;20672;-86
2022/04/14 03:49:11;;;;;;;4.17;3.83;;;12.20;68.80;12.50;96398.00;;;;4942244;28;20217;-85
2022/04/14 03:51:38;;;;;;;4.00;3.67;;;12.20;68.90;12.50;96400.00;;;;4947800;28;20200;-86
2022/04/14 03:54:05;;;;;;;4.17;3.73;;;12.20;68.90;12.40;96394.00;;;;4943675;28;20201;-85
2022/04/14 03:56:32;;;;;;;4.57;4.00;;;12.20;68.90;12.40;96398.00;;;;4934848;28;20295;-85
2022/04/14 03:59:01;;;;;;;3.90;3.60;;;12.10;68.80;12.40;96407.00;;;;4937080;28;20225;-85
2022/04/14 04:01:28;;;;;;;4.47;4.03;;;12.10;69.10;12.40;96401.00;;;;4946814;28;20208;-85
2022/04/14 04:03:55;;;;;;;4.00;3.53;;;12.10;69.30;12.30;96406.00;;;;4973149;28;20230;-85
2022/04/14 04:06:22;;;;;;;3.87;3.57;;;12.10;69.50;12.30;96412.00;;;;4973067;28;20238;-85
2022/04/14 04:08:49;;;;;;;4.13;3.73;;;12.10;69.70;12.20;96405.00;;;;4964957;28;20307;-85
2022/04/14 04:11:16;;;;;;;3.90;3.50;;;12.10;69.90;12.20;96409.00;;;;4953906;28;20204;-86
2022/04/14 04:13:43;;;;;;;4.83;3.73;;;12.00;69.70;12.20;96405.00;;;;4954208;28;20200;-85
2022/04/14 04:16:11;;;;;;;3.53;3.23;;;12.00;69.50;12.20;96407.00;;;;4953646;28;20563;-85
2022/04/14 04:18:38;;;;;;;3.70;2.97;;;12.00;69.40;12.10;96413.00;;;;4953738;28;20219;-86
2022/04/14 04:21:05;;;;;;;4.20;3.90;;;12.00;69.30;12.10;96408.00;;;;4953831;28;20214;-86
2022/04/14 04:23:32;;;;;;;4.53;3.90;;;11.90;69.30;12.10;96415.00;;;;4953922;28;20212;-84
2022/04/14 04:25:59;;;;;;;3.80;3.50;;;11.90;69.50;12.10;96414.00;;;;4953501;28;20846;-87
2022/04/14 04:28:30;;;;;;;5.97;4.33;;;11.90;69.50;12.10;96421.00;;;;4953697;28;20224;-87
2022/04/14 04:30:57;;;;;;;3.73;3.43;;;11.90;69.50;12.10;96424.00;;;;4954018;28;20207;-87
2022/04/14 04:33:26;;;;;;;4.30;3.47;;;11.90;69.60;12.10;96430.00;;;;4953693;28;20578;-87
2022/04/14 04:35:53;;;;;;;4.20;3.80;;;11.90;69.60;12.10;96429.00;;;;4953570;28;20208;-88
2022/04/14 04:38:20;;;;;;;11.57;4.20;;;11.90;69.70;12.10;96424.00;;;;4953693;28;20220;-88
2022/04/14 04:40:47;;;;;;;4.80;3.83;;;11.80;69.60;12.10;96423.00;;;;4953530;28;20193;-88
2022/04/14 04:43:15;;;;;;;6.67;4.30;;;11.80;69.60;12.10;96420.00;;;;4953674;28;20588;-88
2022/04/14 04:45:42;;;;;;;5.00;3.50;;;11.80;69.60;12.10;96427.00;;;;4953306;28;20607;-88
2022/04/14 04:48:09;;;;;;;4.00;3.60;;;11.80;69.80;12.10;96420.00;;;;4952388;28;20203;-87
2022/04/14 04:50:38;;;;;;;4.13;3.73;;;11.80;69.90;12.10;96431.00;;;;4948866;28;20220;-87
2022/04/14 04:53:05;;;;;;;4.97;3.77;;;11.80;69.90;12.10;96440.00;;;;4940034;28;20567;-87
2022/04/14 04:55:33;;;;;;;4.53;4.20;;;11.80;69.90;12.10;96440.00;;;;4952363;28;20212;-88
2022/04/14 04:58:00;;;;;;;4.60;3.67;;;11.80;70.00;12.10;96430.00;;;;4938931;29;20204;-87
2022/04/14 05:00:27;;;;;;;5.03;4.53;;;11.80;70.00;12.00;96438.00;;;;4950032;28;20652;-88
2022/04/14 05:02:57;;;;;;;3.90;3.60;;;11.80;70.10;12.00;96440.00;;;;4953261;28;20226;-88
2022/04/14 05:05:24;;;;;;;4.23;3.93;;;11.80;70.10;12.10;96431.00;;;;4934122;28;20580;-87
2022/04/14 05:07:53;;;;;;;4.80;4.40;;;11.80;70.20;12.10;96438.00;;;;4934044;28;20201;-87
2022/04/14 05:10:20;;;;;;;6.10;4.50;;;11.90;70.40;12.10;96446.00;;;;4940989;28;20222;-88
2022/04/14 05:12:47;;;;;;;4.60;4.20;;;11.80;70.50;12.10;96457.00;;;;4953118;28;20211;-87
2022/04/14 05:15:14;;;;;;;5.00;3.97;;;11.90;71.40;12.20;96453.00;;;;4952753;28;20685;-87
2022/04/14 05:17:41;;;;;;;4.20;3.80;;;11.90;70.70;12.20;96451.00;;;;4953023;28;20210;-87
2022/04/14 05:20:10;;;;;;;4.50;3.97;;;11.90;70.70;12.20;96458.00;;;;4952538;28;20208;-87
2022/04/14 05:22:37;;;;;;;5.20;4.37;;;11.90;70.70;12.20;96458.00;;;;4953055;28;20246;-88
2022/04/14 05:25:07;;;;;;;5.13;4.73;;;11.90;70.80;12.20;96460.00;;;;4950537;28;20205;-87
2022/04/14 05:27:34;;;;;;;6.80;6.13;;;11.90;70.90;12.30;96465.00;;;;4933710;28;20215;-87
2022/04/14 05:30:01;;;;;;;6.90;4.87;;;12.00;71.20;12.30;96463.00;;;;4934956;28;20674;-87
2022/04/14 05:32:28;;;;;;;6.57;5.80;;;12.00;71.40;12.30;96461.00;;;;4948744;28;20195;-85
2022/04/14 05:34:55;;;;;;;7.20;6.40;;;12.00;71.60;12.40;96462.00;;;;4968336;28;20192;-85
2022/04/14 05:37:22;;;;;;;6.40;5.80;;;12.00;71.80;12.50;96467.00;;;;4947526;28;20192;-85
2022/04/14 05:39:49;;;;;;;6.40;5.80;;;12.10;72.80;12.50;96462.00;;;;4959758;28;20215;-84
2022/04/14 05:42:18;;;;;;;6.90;6.30;;;12.10;72.10;12.60;96473.00;;;;4967051;28;20202;-84
2022/04/14 05:44:45;;;;;;;7.13;6.40;;;12.20;72.40;12.70;96473.00;;;;4956407;28;20669;-85
2022/04/14 05:47:12;;;;;;;6.57;5.70;;;12.20;72.40;12.80;96468.00;;;;4951209;28;20222;-85
2022/04/14 05:49:39;;;;;;;7.10;6.27;;;12.30;72.50;12.80;96474.00;;;;5024971;28;20221;-84
2022/04/14 05:52:07;;;;;;;10.87;9.47;;;12.30;72.50;12.90;96470.00;;;;4950280;28;20205;-85
2022/04/14 05:54:34;;;;;;;14.43;12.93;;;12.40;72.50;12.90;96472.00;;;;4949778;28;20206;-85
2022/04/14 05:57:01;;;;;;;10.00;8.57;;;12.40;72.60;13.00;96477.00;;;;4965899;23;20210;-83
2022/04/14 05:59:29;;;;;;;8.33;7.33;;;12.50;72.60;13.00;96475.00;;;;4969797;28;20220;-85
2022/04/14 06:01:56;;;;;;;8.17;6.80;;;12.60;72.80;13.10;96488.00;;;;4968821;28;20215;-85
2022/04/14 06:04:23;;;;;;;9.20;6.83;;;12.60;72.70;13.20;96483.00;;;;4953300;28;20211;-87
2022/04/14 06:06:50;;;;;;;8.70;7.00;;;12.70;73.00;13.20;96491.00;;;;4963396;28;20223;-87
2022/04/14 06:09:17;;;;;;;7.33;6.63;;;12.70;73.10;13.30;96489.00;;;;4968138;28;20685;-87
2022/04/14 06:11:44;;;;;;;7.60;6.80;;;12.80;73.20;13.40;96486.00;;;;4973368;28;20195;-87
2022/04/14 06:14:12;;;;;;;7.63;6.83;;;12.80;73.10;13.40;96494.00;;;;4965287;28;20219;-87
2022/04/14 06:16:43;;;;;;;8.80;6.87;;;12.90;73.10;13.50;96498.00;;;;4949049;28;20273;-86
2022/04/14 06:19:10;;;;;;;8.53;7.00;;;13.00;73.20;13.60;96494.00;;;;4962759;28;20204;-86
2022/04/14 06:21:37;;;;;;;8.03;6.73;;;13.10;73.10;13.70;96501.00;;;;4957619;28;20200;-86
2022/04/14 06:24:08;;;;;;;7.97;7.13;;;13.10;73.10;13.70;96498.00;;;;4949100;28;20610;-86
2022/04/14 06:26:35;;;;;;;7.90;6.63;;;13.20;73.00;13.80;96497.00;;;;4968810;28;20783;-87
2022/04/14 06:29:02;;;;;;;9.10;7.40;;;13.30;72.90;13.90;96496.00;;;;4957136;28;20204;-86
2022/04/14 06:31:29;;;;;;;7.50;6.70;;;13.30;72.90;13.90;96497.00;;;;4959385;28;20576;-88
2022/04/14 06:33:57;;;;;;;8.00;6.87;;;13.40;72.90;14.00;96506.00;;;;4956659;28;20311;-87
2022/04/14 06:36:24;;;;;;;7.77;6.90;;;13.50;72.80;14.10;96496.00;;;;4966600;28;20209;-86
2022/04/14 06:38:51;;;;;;;9.10;7.37;;;13.60;72.80;14.10;96498.00;;;;4968643;28;20191;-87
2022/04/14 06:41:21;;;;;;;7.23;6.37;;;13.60;72.60;14.20;96485.00;;;;4967798;28;20596;-87
2022/04/14 06:43:49;;;;;;;8.73;6.57;;;13.70;72.80;14.30;96497.00;;;;4968761;28;20223;-87
2022/04/14 06:46:16;;;;;;;8.67;6.50;;;13.80;72.80;14.40;96503.00;;;;4968648;28;20716;-85
2022/04/14 06:48:43;;;;;;;7.30;6.60;;;14.10;73.00;14.40;96506.00;;;;4958437;28;20204;-86
2022/04/14 06:51:12;;;;;;;7.07;6.13;;;13.90;72.80;14.50;96504.00;;;;4961706;28;20202;-86
2022/04/14 06:53:43;;;;;;;7.07;6.40;;;14.10;72.90;14.60;96505.00;;;;4959084;28;20228;-85
2022/04/14 06:56:13;;;;;;;6.30;5.70;;;14.10;72.80;14.70;96503.00;;;;4972272;28;20208;-86
2022/04/14 06:58:41;;;;;;;7.37;6.57;;;14.20;73.40;14.80;96516.00;;;;4958217;28;20756;-86
2022/04/14 07:01:11;;;;;;;6.67;6.13;;;14.30;72.60;15.00;96514.00;;;;4961472;28;20196;-87
2022/04/14 07:03:38;;;;;;;7.80;5.97;;;14.40;72.60;15.10;96509.00;;;;4949567;28;20316;-87
2022/04/14 07:06:08;;;;;;;6.60;5.93;;;14.50;72.60;15.20;96508.00;;;;4965440;28;20231;-86
2022/04/14 07:08:38;;;;;;;6.93;6.27;;;14.70;72.40;15.30;96512.00;;;;4960091;28;20192;-87
2022/04/14 07:11:06;;;;;;;6.90;6.20;;;14.70;72.30;15.40;96506.00;;;;4960448;28;20302;-86
2022/04/14 07:13:33;;;;;;;6.63;5.90;;;14.90;72.30;15.50;96519.00;;;;4952848;28;20228;-87
2022/04/14 07:16:00;;;;;;;5.73;5.33;;;15.00;72.40;15.70;96517.00;;;;4951793;28;20211;-87
2022/04/14 07:18:27;;;;;;;6.73;5.90;;;15.10;72.50;15.90;96516.00;;;;4953386;28;20552;-86
2022/04/14 07:20:54;;;;;;;6.40;5.57;;;15.30;72.50;16.20;96518.00;;;;4962606;28;20200;-87
2022/04/14 07:23:22;;;;;;;5.97;5.33;;;15.40;72.30;16.40;96521.00;;;;4969470;28;20226;-87
2022/04/14 07:25:50;;;;;;;6.40;5.17;;;15.60;72.40;16.70;96522.00;;;;4959356;28;20224;-87
2022/04/14 07:28:17;;;;;;;5.70;5.20;;;15.90;72.20;17.00;96528.00;;;;4958126;28;20188;-85
2022/04/14 07:30:44;;;;;;;6.03;4.77;;;16.10;72.20;17.20;96534.00;;;;4958927;28;20201;-87
2022/04/14 07:33:11;;;;;;;5.73;5.23;;;16.30;72.10;17.50;96534.00;;;;4965571;28;20224;-87
2022/04/14 07:35:38;;;;;;;5.17;4.83;;;16.60;71.90;17.80;96540.00;;;;4969259;28;20196;-87
2022/04/14 07:38:06;;;;;;;5.53;5.00;;;16.80;71.50;18.10;96536.00;;;;4969860;28;20211;-87
2022/04/14 07:40:33;;;;;;;5.53;5.03;;;17.10;70.80;18.30;96541.00;;;;4968195;28;20282;-87
2022/04/14 07:43:02;;;;;;;4.93;4.53;;;17.30;70.00;18.60;96540.00;;;;4953400;28;20220;-87
2022/04/14 07:45:29;;;;;;;5.23;4.80;;;17.60;69.40;18.80;96547.00;;;;4967518;28;20203;-88
2022/04/14 07:47:56;;;;;;;5.03;4.60;;;17.80;69.10;19.10;96538.00;;;;4962022;28;20219;-87
2022/04/14 07:50:24;;;;;;;4.90;4.50;;;18.10;68.50;19.40;96546.00;;;;4952913;28;20662;-87
2022/04/14 07:52:54;;;;;;;4.90;4.50;;;18.30;68.10;19.60;96535.00;;;;4948458;28;20711;-87
2022/04/14 07:55:23;;;;;;;5.10;4.33;;;18.60;67.70;19.90;96542.00;;;;4947115;28;20224;-88
2022/04/14 07:57:53;;;;;;;4.33;3.93;;;18.80;66.70;20.10;96545.00;;;;4950302;28;20223;-87
2022/04/14 08:00:23;;;;;;;4.30;3.90;;;19.10;67.30;20.40;96551.00;;;;4951936;28;20203;-86
2022/04/14 08:02:53;;;;;;;4.73;4.33;;;19.40;66.00;20.70;96550.00;;;;4947963;28;20221;-87
2022/04/14 08:05:22;;;;;;;4.33;4.03;;;19.60;65.60;21.00;96556.00;;;;4970428;28;20211;-88
2022/04/14 08:07:49;;;;;;;4.70;4.27;;;19.90;65.40;21.30;96553.00;;;;4954467;28;20779;-88
2022/04/14 08:10:16;;;;;;;5.13;4.63;;;20.10;64.80;21.50;96558.00;;;;4955446;28;20201;-87
2022/04/14 08:12:43;;;;;;;4.57;4.10;;;20.30;64.30;21.80;96560.00;;;;4968246;28;20230;-86
2022/04/14 08:15:12;;;;;;;4.07;3.67;;;20.60;63.90;22.10;96563.00;;;;4951534;28;20199;-87
2022/04/14 08:17:42;;;;;;;4.30;3.90;;;20.80;63.20;22.30;96565.00;;;;4951545;28;20212;-87
2022/04/14 08:20:13;;;;;;;3.57;3.33;;;21.00;62.00;22.60;96575.00;;;;4966613;28;20211;-86
2022/04/14 08:22:49;;;;;;;4.67;3.43;;;21.20;62.10;22.80;96584.00;;;;4962369;28;20220;-86
2022/04/14 08:25:20;;;;;;;3.93;3.63;;;21.40;61.10;23.10;96574.00;;;;4957966;28;20295;-88
2022/04/14 08:27:47;;;;;;;4.33;3.93;;;21.70;60.80;23.40;96582.00;;;;4963657;28;20277;-87
2022/04/14 08:30:18;;;;;;;3.80;3.50;;;21.90;60.60;23.70;96574.00;;;;4952265;28;20660;-87
2022/04/14 08:32:54;;;;;;;3.80;3.50;;;22.10;60.30;24.10;96582.00;;;;4955050;28;20227;-87
2022/04/14 08:35:26;;;;;;;3.80;3.50;;;22.40;58.40;24.50;96585.00;;;;4954390;28;20201;-87
2022/04/14 08:37:58;;;;;;;4.50;3.57;;;22.70;59.10;24.90;96580.00;;;;4956584;28;20202;-86
2022/04/14 08:40:34;;;;;;;4.70;4.13;;;23.00;59.40;25.30;96589.00;;;;4967355;28;20242;-87
2022/04/14 08:43:04;;;;;;;5.87;4.10;;;23.30;57.90;25.80;96589.00;;;;4952237;28;20222;-87
2022/04/14 08:45:34;;;;;;;4.87;4.20;;;23.70;57.10;26.20;96596.00;;;;4953245;28;20219;-87
2022/04/14 08:48:05;;;;;;;3.63;3.33;;;24.00;56.70;26.60;96604.00;;;;4950144;28;20223;-87
2022/04/14 08:50:35;;;;;;;4.30;3.90;;;24.40;56.30;26.90;96606.00;;;;4949204;28;20193;-87
2022/04/14 08:53:06;;;;;;;4.67;4.17;;;24.90;56.00;27.30;96599.00;;;;4951463;28;20588;-87
2022/04/14 08:55:40;;;;;;;4.70;4.20;;;25.30;55.50;27.60;96611.00;;;;4961845;28;20541;-87
2022/04/14 08:58:14;;;;;;;4.60;4.20;;;25.80;54.70;27.90;96610.00;;;;4955387;28;20247;-87
2022/04/14 09:00:42;;;;;;;4.53;4.13;;;26.20;55.00;28.20;96612.00;;;;4947427;28;20203;-88
2022/04/14 09:03:13;;;;;;;5.63;4.82;;;26.60;54.60;28.50;96622.00;;;;4950420;28;20227;-86
2022/04/14 09:05:41;;;;;;;4.88;4.53;;;26.90;54.00;28.80;96617.00;;;;4950285;28;20210;-87
2022/04/14 09:08:08;;;;;;;4.72;4.32;;;27.30;52.70;29.10;96624.00;;;;4948134;28;20270;-86
2022/04/14 09:10:39;;;;;;;5.35;4.95;;;27.60;52.60;29.30;96631.00;;;;4950172;28;20215;-87
2022/04/14 09:13:12;;;;;;;6.47;4.88;;;27.80;51.30;29.50;96627.00;;;;4960494;28;20959;-88
2022/04/14 09:15:39;;;;;;;4.68;4.38;;;28.00;50.00;29.60;96628.00;;;;4953375;28;20291;-87
2022/04/14 09:18:22;;;;;;;4.65;4.22;;;28.20;49.90;29.80;96634.00;;;;4952838;28;20348;-87
2022/04/14 09:20:50;;;;;;;4.25;3.90;;;28.40;49.80;29.90;96627.00;;;;4971812;28;20203;-87
2022/04/14 09:23:25;;;;;;;4.15;3.85;;;28.70;50.10;30.00;96619.00;;;;4967145;28;20306;-87
2022/04/14 09:26:09;;;;;;;4.45;4.05;;;29.00;50.10;30.20;96631.00;;;;4954517;28;20206;-87
2022/04/14 09:28:40;;;;;;;4.22;3.88;;;29.30;49.60;30.40;96626.00;;;;4961255;28;20200;-87
2022/04/14 09:31:10;;;;;;;4.18;3.75;;;29.60;49.30;30.60;96624.00;;;;4952110;28;20277;-89
2022/04/14 09:33:48;;;;;;;3.70;3.40;;;29.90;48.60;30.80;96626.00;;;;4959822;28;20239;-87
2022/04/14 09:36:20;;;;;;;4.25;3.92;;;30.40;47.20;31.00;96632.00;;;;4953616;28;20201;-87
2022/04/14 09:39:00;;;;;;;4.97;3.72;;;30.70;46.50;31.00;96627.00;;;;4970013;28;20207;-88
2022/04/14 09:41:34;;;;;;;4.28;3.88;;;31.00;47.50;31.20;96629.00;;;;4952536;28;20705;-87
2022/04/14 09:44:05;;;;;;;4.03;3.67;;;31.30;45.20;31.30;96627.00;;;;4949506;28;20315;-86
2022/04/14 09:46:32;;;;;;;4.00;3.67;;;31.50;45.60;31.60;96629.00;;;;4960187;28;20731;-85
2022/04/14 09:49:13;;;;;;;4.22;3.83;;;31.70;45.00;31.80;96628.00;;;;4970135;28;20195;-83
2022/04/14 09:51:43;;;;;;;4.72;4.28;;;32.00;45.00;32.10;96628.00;;;;4954313;28;20197;-85
2022/04/14 09:54:18;;;;;;;4.20;3.85;;;32.30;44.60;32.30;96627.00;;;;4954209;28;20684;-85
2022/04/14 09:56:51;;;;;;;3.70;3.47;;;32.60;44.20;32.50;96630.00;;;;4959733;28;20248;-85
2022/04/14 09:59:23;;;;;;;3.85;3.65;;;32.80;44.30;32.60;96638.00;;;;4963282;28;20631;-86
2022/04/14 10:02:09;;;;;;;3.78;3.35;;;33.00;42.80;32.70;96630.00;;;;4951948;28;20666;-87
2022/04/14 10:04:44;;;;;;;3.97;3.58;;;33.20;43.20;32.90;96629.00;;;;4960116;28;20203;-87
2022/04/14 10:07:18;;;;;;;6.50;3.30;;;33.40;42.50;33.00;96639.00;;;;4951972;28;20697;-87
2022/04/14 10:09:48;;;;;;;3.30;3.00;;;33.50;42.90;33.10;96625.00;;;;4951304;29;20589;-88
2022/04/14 10:12:40;;;;;;;4.53;3.72;;;33.60;42.90;33.20;96629.00;;;;4989908;28;20227;-88
2022/04/14 10:15:12;;;;;;;6.88;3.45;;;33.80;40.90;33.20;96626.00;;;;4966800;28;20256;-87
2022/04/14 10:17:41;;;;;;;3.55;3.28;;;33.80;41.40;33.20;96628.00;;;;4950327;28;20212;-89
2022/04/14 10:20:20;;;;;;;3.83;2.97;;;33.80;41.80;33.20;96619.00;;;;4953850;28;20665;-87
2022/04/14 10:22:48;;;;;;;4.15;3.10;;;33.90;40.90;33.20;96630.00;;;;4963854;28;20224;-89
2022/04/14 10:25:37;;;;;;;3.25;3.05;;;33.90;41.20;33.10;96616.00;;;;4949960;28;20207;-87
2022/04/14 10:28:12;;;;;;;3.17;2.92;;;33.90;39.10;33.00;96624.00;;;;4952022;28;20287;-87
2022/04/14 10:30:45;;;;;;;3.47;3.05;;;33.90;39.50;32.80;96623.00;;;;4957067;28;20206;-87
2022/04/14 10:33:17;;;;;;;2.70;2.50;;;33.80;39.80;32.70;96620.00;;;;4963674;28;20224;-87
2022/04/14 10:35:50;;;;;;;2.70;2.50;;;33.70;39.50;32.50;96629.00;;;;4961664;28;20641;-87
2022/04/14 10:38:40;;;;;;;3.30;2.45;;;33.50;39.40;32.40;96623.00;;;;4971025;28;20235;-87
2022/04/14 10:41:16;;;;;;;2.67;2.47;;;33.50;39.70;32.40;96614.00;;;;4962276;28;20202;-87
2022/04/14 10:43:46;;;;;;;3.92;3.00;;;33.40;39.70;32.30;96619.00;;;;4949589;29;20705;-88
2022/04/14 10:46:15;;;;;;;3.95;3.38;;;33.40;39.30;32.20;96616.00;;;;4964001;28;20208;-87
2022/04/14 10:48:44;;;;;;;3.97;3.15;;;33.20;37.90;32.00;96620.00;;;;4972622;28;20329;-85
2022/04/14 10:51:28;;;;;;;3.45;3.15;;;33.00;37.90;31.70;96615.00;;;;4968816;28;20202;-87
2022/04/14 10:54:00;;;;;;;5.05;3.10;;;32.70;36.80;31.40;96605.00;;;;4957815;28;20219;-86
2022/04/14 10:56:49;;;;;;;3.35;3.05;;;32.30;37.10;31.10;96608.00;;;;4969623;28;20745;-87
2022/04/14 10:59:19;;;;;;;3.15;2.85;;;31.90;36.20;30.80;96607.00;;;;4965265;28;20290;-87
2022/04/14 11:02:04;;;;;;;3.28;2.97;;;31.50;37.80;30.50;96611.00;;;;4967615;28;20206;-86
2022/04/14 11:04:37;;;;;;;4.07;2.83;;;31.10;37.30;30.20;96606.00;;;;4959981;28;20219;-86